createdAt,value
2023-08-04T00:02:47.757Z,24.47
2023-08-04T00:07:50.977Z,24.38
2023-08-04T00:12:54.169Z,24.24
2023-08-04T00:17:57.957Z,24.32
2023-08-04T00:23:01.060Z,24.21
2023-08-04T00:28:04.280Z,24.11
2023-08-04T00:33:07.444Z,24.07
2023-08-04T00:38:10.512Z,24.02
2023-08-04T00:43:13.844Z,24.05
2023-08-04T00:48:17.256Z,24.08
2023-08-04T00:53:20.651Z,24.01
2023-08-04T00:58:24.055Z,24.08
2023-08-04T01:03:28.580Z,24.05
2023-08-04T01:08:35.393Z,23.99
2023-08-04T01:13:41.005Z,24.04
2023-08-04T01:18:44.019Z,24.01
2023-08-04T01:23:47.186Z,23.96
2023-08-04T01:28:51.146Z,23.97
2023-08-04T01:33:54.343Z,24.06
2023-08-04T01:38:58.114Z,23.95
2023-08-04T01:44:01.254Z,23.90
2023-08-04T01:49:06.024Z,23.95
2023-08-04T01:54:09.086Z,23.91
2023-08-04T01:59:12.091Z,23.80
2023-08-04T02:04:15.327Z,23.93
2023-08-04T02:09:18.576Z,23.85
2023-08-04T02:14:22.879Z,23.91
2023-08-04T02:19:28.475Z,24.00
2023-08-04T02:24:31.574Z,24.06
2023-08-04T02:29:34.950Z,24.24
2023-08-04T02:34:38.183Z,24.42
2023-08-04T02:39:41.296Z,24.61
2023-08-04T02:44:44.413Z,24.79
2023-08-04T02:49:47.543Z,24.79
2023-08-04T02:54:54.969Z,25.16
2023-08-04T02:59:59.553Z,25.59
2023-08-04T03:05:03.137Z,25.80
2023-08-04T03:10:07.906Z,25.93
2023-08-04T03:15:11.234Z,26.11
2023-08-04T03:20:14.304Z,26.37
2023-08-04T03:25:17.415Z,26.48
2023-08-04T03:30:20.555Z,26.95
2023-08-04T03:35:23.599Z,27.07
2023-08-04T03:40:28.945Z,27.20
2023-08-04T03:45:32.017Z,27.21
2023-08-04T03:50:35.252Z,27.52
2023-08-04T03:55:38.339Z,28.05
2023-08-04T04:00:41.357Z,29.37
2023-08-04T04:05:44.470Z,30.47
2023-08-04T04:10:49.631Z,31.49
2023-08-04T04:15:52.671Z,32.42
2023-08-04T04:20:55.847Z,33.31
2023-08-04T04:25:58.918Z,34.04
2023-08-04T04:31:05.887Z,34.08
2023-08-04T04:36:09.015Z,34.98
2023-08-04T04:41:12.140Z,35.35
2023-08-04T04:46:15.152Z,35.48
2023-08-04T04:51:18.285Z,36.06
2023-08-04T04:56:21.275Z,36.31
2023-08-04T05:01:24.424Z,36.25
2023-08-04T05:06:30.443Z,36.71
2023-08-04T05:11:33.941Z,37.44
2023-08-04T05:16:37.021Z,36.85
2023-08-04T05:21:40.080Z,37.26
2023-08-04T05:26:43.431Z,37.86
2023-08-04T05:31:46.626Z,37.32
2023-08-04T05:36:50.008Z,37.28
2023-08-04T05:41:53.072Z,37.62
2023-08-04T05:46:57.143Z,37.69
2023-08-04T05:52:00.928Z,37.53
2023-08-04T05:57:04.196Z,37.96
2023-08-04T06:02:07.343Z,38.06
2023-08-04T06:07:10.381Z,38.05
2023-08-04T06:12:13.497Z,38.21
2023-08-04T06:17:16.691Z,37.99
2023-08-04T06:22:19.779Z,37.69
2023-08-04T06:27:23.155Z,37.97
2023-08-04T06:32:26.400Z,38.54
2023-08-04T06:37:29.284Z,38.70
2023-08-04T06:42:32.358Z,38.71
2023-08-04T06:47:35.707Z,38.17
2023-08-04T06:52:39.243Z,38.48
2023-08-04T06:57:42.470Z,38.86
2023-08-04T07:02:50.238Z,38.31
2023-08-04T07:07:56.079Z,38.57
2023-08-04T07:12:59.194Z,38.60
2023-08-04T07:18:02.316Z,38.01
2023-08-04T07:23:05.381Z,38.30
2023-08-04T07:28:08.506Z,38.55
2023-08-04T07:33:11.620Z,38.22
2023-08-04T07:38:14.895Z,37.82
2023-08-04T07:43:18.597Z,37.85
2023-08-04T07:48:22.935Z,37.92
2023-08-04T07:53:26.055Z,37.89
2023-08-04T07:58:29.192Z,37.75
2023-08-04T08:03:36.400Z,37.36
2023-08-04T08:08:39.494Z,36.89
2023-08-04T08:13:42.555Z,37.22
2023-08-04T08:18:45.636Z,36.97
2023-08-04T08:23:48.700Z,36.76
2023-08-04T08:28:51.779Z,37.09
2023-08-04T08:33:54.985Z,37.28
2023-08-04T08:38:58.098Z,37.58
2023-08-04T08:44:01.153Z,37.62
2023-08-04T08:49:05.666Z,37.51
2023-08-04T08:54:09.590Z,37.25
2023-08-04T08:59:12.947Z,37.22
2023-08-04T09:04:17.384Z,37.19
2023-08-04T09:09:20.455Z,37.09
2023-08-04T09:14:23.542Z,37.50
2023-08-04T09:19:34.290Z,37.44
2023-08-04T09:24:37.894Z,37.21
2023-08-04T09:29:57.754Z,37.41
2023-08-04T09:35:07.940Z,37.21
2023-08-04T09:40:21.809Z,37.03
2023-08-04T09:45:25.085Z,37.34
2023-08-04T09:50:28.511Z,37.27
2023-08-04T09:55:32.253Z,36.79
2023-08-04T10:00:35.414Z,37.24
2023-08-04T10:05:38.756Z,37.04
2023-08-04T10:10:43.492Z,37.08
2023-08-04T10:15:47.464Z,36.99
2023-08-04T10:20:52.655Z,37.00
2023-08-04T10:26:00.613Z,37.14
2023-08-04T10:31:12.604Z,36.69
2023-08-04T10:36:16.404Z,36.89
2023-08-04T10:41:19.449Z,36.66
2023-08-04T10:46:26.534Z,36.56
2023-08-04T10:51:29.853Z,36.63
2023-08-04T10:56:32.945Z,36.47
2023-08-04T11:01:36.211Z,36.51
2023-08-04T11:06:39.534Z,36.58
2023-08-04T11:11:42.886Z,36.54
2023-08-04T11:16:48.125Z,36.40
2023-08-04T11:21:52.071Z,36.55
2023-08-04T11:26:57.778Z,36.40
2023-08-04T11:32:00.964Z,36.44
2023-08-04T11:37:04.326Z,36.39
2023-08-04T11:42:14.575Z,36.31
2023-08-04T11:47:19.081Z,36.15
2023-08-04T11:52:24.509Z,35.88
2023-08-04T11:57:27.992Z,36.14
2023-08-04T12:02:31.321Z,36.07
2023-08-04T12:07:34.838Z,36.09
2023-08-04T12:12:43.390Z,35.98
2023-08-04T12:17:46.564Z,35.84
2023-08-04T12:22:49.778Z,35.73
2023-08-04T12:27:52.968Z,35.60
2023-08-04T12:32:56.075Z,35.56
2023-08-04T12:38:01.570Z,35.40
2023-08-04T12:43:04.917Z,35.29
2023-08-04T12:48:07.999Z,35.34
2023-08-04T12:53:15.610Z,35.56
2023-08-04T12:58:19.096Z,35.60
2023-08-04T13:03:22.282Z,35.53
2023-08-04T13:08:25.505Z,35.54
2023-08-04T13:13:28.768Z,35.41
2023-08-04T13:18:31.811Z,35.32
2023-08-04T13:23:35.042Z,35.23
2023-08-04T13:28:38.080Z,35.33
2023-08-04T13:33:41.165Z,35.22
2023-08-04T13:38:44.546Z,35.10
2023-08-04T13:43:48.425Z,35.07
2023-08-04T13:48:51.423Z,35.09
2023-08-04T13:53:54.471Z,34.96
2023-08-04T13:58:57.582Z,34.89
2023-08-04T14:04:01.288Z,34.84
2023-08-04T14:09:04.653Z,34.70
2023-08-04T14:14:07.902Z,34.83
2023-08-04T14:19:11.067Z,34.78
2023-08-04T14:24:14.202Z,34.61
2023-08-04T14:29:18.916Z,34.59
2023-08-04T14:34:22.076Z,34.48
2023-08-04T14:39:25.252Z,34.39
2023-08-04T14:44:28.610Z,34.37
2023-08-04T14:49:31.666Z,34.20
2023-08-04T14:54:34.832Z,34.12
2023-08-04T14:59:38.030Z,34.09
2023-08-04T15:04:42.063Z,34.02
2023-08-04T15:09:45.187Z,33.94
2023-08-04T15:14:49.589Z,33.83
2023-08-04T15:19:52.604Z,33.76
2023-08-04T15:24:55.603Z,33.66
2023-08-04T15:29:58.636Z,33.48
2023-08-04T15:35:02.026Z,33.48
2023-08-04T15:40:07.533Z,33.31
2023-08-04T15:45:13.737Z,33.18
2023-08-04T15:50:16.977Z,32.98
2023-08-04T15:55:20.034Z,32.79
2023-08-04T16:00:23.098Z,32.79
2023-08-04T16:05:28.751Z,32.58
2023-08-04T16:10:32.799Z,32.40
2023-08-04T16:15:35.832Z,32.22
2023-08-04T16:20:39.115Z,32.10
2023-08-04T16:25:42.138Z,31.87
2023-08-04T16:30:45.246Z,31.63
2023-08-04T16:35:49.012Z,31.47
2023-08-04T16:40:57.330Z,31.33
2023-08-04T16:46:00.763Z,31.22
2023-08-04T16:51:04.227Z,31.09
2023-08-04T16:56:07.309Z,30.93
2023-08-04T17:01:13.312Z,30.62
2023-08-04T17:06:19.347Z,30.56
2023-08-04T17:11:23.146Z,30.56
2023-08-04T17:16:26.298Z,30.44
2023-08-04T17:21:31.657Z,30.40
2023-08-04T17:26:34.616Z,30.25
2023-08-04T17:31:37.985Z,30.30
2023-08-04T17:36:42.638Z,30.17
2023-08-04T17:41:45.616Z,30.23
2023-08-04T17:46:48.940Z,29.96
2023-08-04T17:51:55.017Z,29.81
2023-08-04T17:56:59.019Z,29.78
2023-08-04T18:02:02.029Z,29.67
2023-08-04T18:07:05.349Z,29.67
2023-08-04T18:12:08.824Z,29.58
2023-08-04T18:17:11.890Z,29.57
2023-08-04T18:22:17.312Z,29.52
2023-08-04T18:27:20.296Z,29.51
2023-08-04T18:32:23.341Z,29.46
2023-08-04T18:37:26.383Z,29.29
2023-08-04T18:42:29.589Z,29.27
2023-08-04T18:47:32.717Z,29.33
2023-08-04T18:52:36.284Z,29.16
2023-08-04T18:57:39.433Z,29.10
2023-08-04T19:02:42.624Z,29.06
2023-08-04T19:07:45.773Z,29.00
2023-08-04T19:12:48.907Z,29.04
2023-08-04T19:17:52.268Z,28.99
2023-08-04T19:22:55.381Z,28.87
2023-08-04T19:27:58.501Z,28.76
2023-08-04T19:33:01.586Z,28.70
2023-08-04T19:38:04.918Z,28.58
2023-08-04T19:43:08.787Z,28.59
2023-08-04T19:48:12.222Z,28.47
2023-08-04T19:53:15.294Z,28.42
2023-08-04T19:58:18.428Z,28.40
2023-08-04T20:03:21.771Z,28.27
2023-08-04T20:08:24.824Z,28.20
2023-08-04T20:13:28.200Z,28.15
2023-08-04T20:18:32.315Z,28.11
2023-08-04T20:23:35.995Z,28.02
2023-08-04T20:28:39.560Z,27.98
2023-08-04T20:33:42.653Z,27.89
2023-08-04T20:38:45.752Z,27.96
2023-08-04T20:43:48.819Z,27.88
2023-08-04T20:48:51.789Z,27.91
2023-08-04T20:53:54.899Z,27.86
2023-08-04T20:58:57.945Z,27.71
2023-08-04T21:04:00.973Z,27.67
2023-08-04T21:09:04.122Z,27.61
2023-08-04T21:14:07.200Z,27.60
2023-08-04T21:19:10.232Z,27.53
2023-08-04T21:24:13.416Z,27.43
2023-08-04T21:29:16.417Z,27.38
2023-08-04T21:34:22.484Z,27.26
2023-08-04T21:39:26.291Z,27.14
2023-08-04T21:44:29.971Z,27.21
2023-08-04T21:49:33.247Z,27.12
2023-08-04T21:54:45.320Z,27.10
2023-08-04T21:59:48.493Z,27.15
2023-08-04T22:04:51.526Z,27.07
2023-08-04T22:09:54.910Z,27.03
2023-08-04T22:14:59.702Z,26.92
2023-08-04T22:20:02.959Z,27.04
2023-08-04T22:25:06.271Z,26.96
2023-08-04T22:30:09.598Z,27.02
2023-08-04T22:35:12.666Z,26.79
2023-08-04T22:40:15.655Z,26.82
2023-08-04T22:45:18.788Z,26.66
2023-08-04T22:50:22.046Z,26.66
2023-08-04T22:55:25.193Z,26.41
2023-08-04T23:00:28.825Z,26.33
2023-08-04T23:05:35.163Z,26.28
2023-08-04T23:10:38.299Z,26.20
2023-08-04T23:15:41.327Z,26.24
2023-08-04T23:20:51.657Z,26.19
2023-08-04T23:25:54.896Z,26.18
2023-08-04T23:30:58.029Z,26.17
2023-08-04T23:36:01.207Z,26.17
2023-08-04T23:41:04.402Z,26.08
2023-08-04T23:46:07.588Z,26.05
2023-08-04T23:51:10.829Z,26.16
2023-08-04T23:56:13.982Z,25.98
